createdAt,value
2023-05-22T00:00:19.235Z,70.58
2023-05-22T00:02:51.028Z,70.81
2023-05-22T00:05:21.926Z,70.88
2023-05-22T00:07:52.665Z,70.98
2023-05-22T00:10:23.295Z,70.92
2023-05-22T00:12:54.251Z,71.01
2023-05-22T00:15:24.911Z,71.14
2023-05-22T00:17:56.239Z,71.24
2023-05-22T00:20:27.304Z,71.30
2023-05-22T00:23:01.213Z,71.45
2023-05-22T00:25:32.107Z,71.49
2023-05-22T00:28:03.357Z,71.70
2023-05-22T00:30:34.478Z,71.73
2023-05-22T00:33:05.499Z,71.89
2023-05-22T00:35:36.090Z,71.89
2023-05-22T00:38:07.397Z,71.95
2023-05-22T00:40:38.221Z,72.19
2023-05-22T00:43:09.566Z,72.37
2023-05-22T00:45:40.790Z,72.39
2023-05-22T00:48:12.437Z,72.60
2023-05-22T00:50:43.171Z,72.61
2023-05-22T00:53:14.872Z,72.73
2023-05-22T00:55:46.434Z,72.41
2023-05-22T00:58:19.763Z,72.59
2023-05-22T01:00:51.440Z,72.42
2023-05-22T01:03:26.962Z,72.56
2023-05-22T01:05:58.571Z,72.34
2023-05-22T01:08:30.019Z,72.57
2023-05-22T01:11:06.184Z,72.45
2023-05-22T01:13:44.125Z,72.57
2023-05-22T01:16:21.983Z,72.53
2023-05-22T01:19:02.717Z,72.71
2023-05-22T01:21:40.468Z,72.84
2023-05-22T01:24:25.665Z,72.96
2023-05-22T01:27:29.786Z,72.96
2023-05-22T01:30:14.876Z,72.98
2023-05-22T01:32:48.059Z,73.13
2023-05-22T01:35:20.805Z,73.39
2023-05-22T01:37:51.793Z,73.40
2023-05-22T01:40:23.332Z,73.30
2023-05-22T01:42:54.169Z,73.28
2023-05-22T01:45:25.479Z,73.34
2023-05-22T01:47:56.267Z,73.27
2023-05-22T01:50:27.936Z,73.34
2023-05-22T01:53:07.657Z,73.33
2023-05-22T01:55:46.227Z,73.44
2023-05-22T01:58:24.324Z,73.56
2023-05-22T02:00:58.053Z,73.39
2023-05-22T02:03:31.882Z,73.43
2023-05-22T02:06:06.867Z,73.48
2023-05-22T02:08:39.695Z,73.42
2023-05-22T02:11:12.137Z,73.50
2023-05-22T02:13:42.848Z,73.43
2023-05-22T02:16:14.167Z,73.34
2023-05-22T02:18:45.419Z,73.59
2023-05-22T02:21:16.447Z,73.49
2023-05-22T02:23:47.249Z,73.48
2023-05-22T02:26:17.994Z,73.68
2023-05-22T02:28:48.807Z,73.55
2023-05-22T02:31:19.672Z,73.53
2023-05-22T02:33:50.985Z,73.46
2023-05-22T02:36:23.106Z,73.48
2023-05-22T02:38:55.481Z,73.62
2023-05-22T02:41:26.441Z,73.68
2023-05-22T02:43:57.134Z,73.65
2023-05-22T02:46:28.082Z,73.68
2023-05-22T02:48:58.755Z,73.81
2023-05-22T02:51:30.070Z,73.66
2023-05-22T02:54:00.768Z,73.59
2023-05-22T02:56:31.311Z,73.67
2023-05-22T02:59:03.214Z,73.59
2023-05-22T03:01:34.635Z,73.60
2023-05-22T03:04:05.909Z,73.64
2023-05-22T03:06:37.200Z,73.72
2023-05-22T03:09:08.727Z,73.68
2023-05-22T03:11:39.315Z,73.78
2023-05-22T03:14:10.136Z,73.72
2023-05-22T03:16:41.569Z,73.66
2023-05-22T03:19:13.505Z,73.54
2023-05-22T03:21:44.675Z,73.64
2023-05-22T03:24:16.090Z,73.58
2023-05-22T03:26:46.810Z,73.44
2023-05-22T03:29:18.053Z,73.50
2023-05-22T03:31:49.266Z,73.48
2023-05-22T03:34:20.233Z,73.45
2023-05-22T03:36:50.759Z,73.46
2023-05-22T03:39:21.629Z,73.38
2023-05-22T03:41:52.959Z,73.24
2023-05-22T03:44:23.858Z,73.15
2023-05-22T03:46:54.590Z,73.27
2023-05-22T03:49:25.338Z,73.29
2023-05-22T03:51:56.056Z,73.06
2023-05-22T03:54:27.255Z,72.87
2023-05-22T03:56:58.221Z,73.50
2023-05-22T03:59:29.043Z,73.28
2023-05-22T04:02:01.239Z,72.95
2023-05-22T04:04:32.407Z,72.92
2023-05-22T04:07:03.016Z,72.97
2023-05-22T04:09:34.453Z,72.80
2023-05-22T04:12:05.299Z,72.59
2023-05-22T04:14:36.461Z,72.51
2023-05-22T04:17:10.554Z,72.41
2023-05-22T04:19:41.190Z,72.37
2023-05-22T04:22:12.053Z,72.36
2023-05-22T04:24:42.732Z,72.44
2023-05-22T04:27:13.337Z,72.25
2023-05-22T04:29:45.013Z,72.16
2023-05-22T04:32:18.391Z,72.19
2023-05-22T04:34:51.060Z,72.07
2023-05-22T04:37:32.665Z,71.92
2023-05-22T04:40:08.005Z,71.76
2023-05-22T04:42:39.272Z,71.69
2023-05-22T04:45:13.870Z,71.29
2023-05-22T04:47:44.608Z,71.31
2023-05-22T04:50:16.424Z,71.16
2023-05-22T04:52:47.280Z,71.00
2023-05-22T04:55:19.184Z,71.04
2023-05-22T04:57:50.455Z,70.92
2023-05-22T05:00:26.493Z,70.59
2023-05-22T05:03:00.419Z,70.41
2023-05-22T05:05:31.614Z,70.24
2023-05-22T05:08:02.770Z,69.89
2023-05-22T05:10:34.577Z,69.58
2023-05-22T05:13:05.885Z,69.59
2023-05-22T05:15:37.086Z,69.47
2023-05-22T05:18:07.860Z,69.60
2023-05-22T05:20:39.142Z,69.43
2023-05-22T05:23:11.417Z,69.42
2023-05-22T05:25:42.497Z,69.28
2023-05-22T05:28:13.119Z,69.24
2023-05-22T05:30:44.060Z,69.19
2023-05-22T05:33:15.570Z,68.90
2023-05-22T05:35:46.661Z,68.62
2023-05-22T05:38:18.200Z,68.37
2023-05-22T05:40:49.127Z,68.26
2023-05-22T05:43:20.269Z,67.99
2023-05-22T05:45:51.306Z,68.11
2023-05-22T05:48:21.848Z,68.05
2023-05-22T05:50:53.125Z,67.99
2023-05-22T05:53:23.854Z,67.44
2023-05-22T05:55:54.762Z,67.52
2023-05-22T05:58:25.792Z,67.12
2023-05-22T06:00:57.345Z,67.17
2023-05-22T06:03:28.012Z,66.96
2023-05-22T06:05:59.763Z,67.17
2023-05-22T06:08:32.271Z,67.19
2023-05-22T06:11:03.510Z,67.10
2023-05-22T06:13:34.112Z,66.93
2023-05-22T06:16:06.737Z,66.81
2023-05-22T06:18:38.458Z,66.68
2023-05-22T06:21:09.071Z,66.24
2023-05-22T06:23:39.862Z,66.11
2023-05-22T06:26:10.894Z,66.16
2023-05-22T06:28:41.513Z,66.24
2023-05-22T06:31:12.018Z,66.06
2023-05-22T06:33:43.479Z,66.07
2023-05-22T06:36:14.227Z,66.07
2023-05-22T06:38:46.143Z,65.32
2023-05-22T06:41:17.287Z,65.22
2023-05-22T06:43:48.194Z,64.91
2023-05-22T06:46:18.982Z,64.89
2023-05-22T06:48:50.059Z,64.17
2023-05-22T06:51:22.340Z,64.61
2023-05-22T06:53:53.368Z,64.76
2023-05-22T06:56:25.367Z,64.52
2023-05-22T06:58:56.241Z,64.28
2023-05-22T07:01:26.992Z,63.95
2023-05-22T07:04:01.554Z,63.47
2023-05-22T07:06:33.592Z,63.41
2023-05-22T07:09:05.643Z,63.41
2023-05-22T07:11:36.656Z,62.53
2023-05-22T07:14:07.879Z,62.03
2023-05-22T07:16:41.932Z,61.85
2023-05-22T07:19:14.075Z,61.67
2023-05-22T07:21:44.865Z,61.51
2023-05-22T07:24:15.447Z,61.49
2023-05-22T07:26:46.828Z,61.10
2023-05-22T07:29:17.561Z,60.70
2023-05-22T07:31:48.182Z,60.86
2023-05-22T07:34:19.787Z,60.45
2023-05-22T07:36:51.091Z,60.46
2023-05-22T07:39:21.941Z,59.99
2023-05-22T07:41:54.678Z,60.19
2023-05-22T07:44:27.529Z,59.78
2023-05-22T07:46:59.497Z,59.96
2023-05-22T07:49:30.617Z,60.13
2023-05-22T07:52:01.067Z,59.95
2023-05-22T07:54:32.029Z,59.95
2023-05-22T07:57:03.834Z,59.79
2023-05-22T07:59:35.841Z,58.89
2023-05-22T08:02:08.483Z,58.77
2023-05-22T08:04:39.705Z,59.07
2023-05-22T08:07:10.803Z,59.19
2023-05-22T08:09:41.547Z,59.37
2023-05-22T08:12:12.802Z,59.80
2023-05-22T08:14:44.462Z,60.14
2023-05-22T08:17:15.499Z,59.99
2023-05-22T08:19:46.787Z,60.00
2023-05-22T08:22:19.796Z,59.97
2023-05-22T08:24:50.761Z,60.02
2023-05-22T08:27:21.420Z,59.81
2023-05-22T08:29:52.753Z,59.72
2023-05-22T08:32:23.664Z,59.64
2023-05-22T08:34:54.297Z,58.52
2023-05-22T08:37:25.137Z,59.31
2023-05-22T08:39:55.739Z,58.95
2023-05-22T08:42:26.943Z,59.33
2023-05-22T08:45:01.099Z,59.08
2023-05-22T08:47:35.297Z,59.30
2023-05-22T08:50:07.299Z,59.17
2023-05-22T08:52:48.190Z,58.38
2023-05-22T08:55:20.465Z,58.64
2023-05-22T08:57:52.638Z,58.56
2023-05-22T09:00:24.720Z,59.08
2023-05-22T09:02:56.334Z,59.10
2023-05-22T09:05:27.813Z,59.23
2023-05-22T09:08:08.488Z,59.19
2023-05-22T09:10:47.602Z,59.39
2023-05-22T09:13:28.048Z,58.70
2023-05-22T09:16:09.280Z,58.56
2023-05-22T09:18:41.172Z,58.74
2023-05-22T09:21:25.534Z,58.43
2023-05-22T09:24:03.689Z,58.29
2023-05-22T09:26:34.278Z,58.51
2023-05-22T09:29:05.377Z,57.66
2023-05-22T09:31:44.620Z,58.36
2023-05-22T09:34:18.828Z,58.06
2023-05-22T09:36:51.352Z,57.89
2023-05-22T09:39:22.534Z,58.04
2023-05-22T09:41:53.257Z,58.31
2023-05-22T09:44:27.823Z,57.79
2023-05-22T09:46:59.061Z,57.74
2023-05-22T09:49:29.920Z,57.53
2023-05-22T09:52:03.117Z,58.00
2023-05-22T09:54:35.346Z,57.57
2023-05-22T09:57:10.668Z,57.28
2023-05-22T09:59:43.759Z,57.38
2023-05-22T10:02:15.405Z,57.56
2023-05-22T10:04:49.033Z,57.89
2023-05-22T10:07:20.446Z,58.08
2023-05-22T10:09:58.701Z,57.89
2023-05-22T10:12:32.655Z,57.19
2023-05-22T10:15:07.511Z,57.68
2023-05-22T10:17:39.215Z,57.97
2023-05-22T10:20:13.251Z,57.47
2023-05-22T10:22:44.394Z,56.38
2023-05-22T10:25:15.484Z,56.98
2023-05-22T10:27:46.740Z,57.03
2023-05-22T10:30:28.914Z,57.75
2023-05-22T10:33:08.620Z,56.96
2023-05-22T10:35:45.530Z,56.54
2023-05-22T10:38:37.113Z,56.53
2023-05-22T10:41:08.557Z,56.28
2023-05-22T10:43:43.947Z,56.12
2023-05-22T10:46:15.770Z,55.60
2023-05-22T10:48:49.632Z,54.97
2023-05-22T10:51:23.033Z,54.43
2023-05-22T10:54:00.921Z,54.46
2023-05-22T10:56:37.238Z,53.62
2023-05-22T10:59:08.609Z,53.00
2023-05-22T11:01:39.771Z,53.56
2023-05-22T11:04:15.890Z,54.12
2023-05-22T11:06:49.051Z,53.82
2023-05-22T11:09:28.248Z,53.46
2023-05-22T11:12:21.058Z,53.33
2023-05-22T11:14:56.801Z,53.45
2023-05-22T11:17:30.062Z,53.66
2023-05-22T11:20:02.895Z,53.80
2023-05-22T11:22:35.282Z,53.50
2023-05-22T11:25:10.879Z,53.07
2023-05-22T11:27:43.411Z,52.64
2023-05-22T11:30:15.147Z,52.56
2023-05-22T11:32:47.862Z,53.00
2023-05-22T11:35:19.743Z,52.71
2023-05-22T11:37:51.345Z,52.94
2023-05-22T11:40:24.486Z,52.66
2023-05-22T11:42:55.584Z,51.99
2023-05-22T11:45:26.535Z,51.11
2023-05-22T11:47:57.997Z,50.76
2023-05-22T11:50:41.846Z,51.27
2023-05-22T11:53:14.383Z,51.50
2023-05-22T11:55:49.470Z,50.55
2023-05-22T11:58:28.248Z,51.00
2023-05-22T12:01:02.362Z,50.88
2023-05-22T12:03:34.297Z,50.81
2023-05-22T12:06:06.247Z,50.89
2023-05-22T12:08:37.750Z,51.02
2023-05-22T12:11:09.043Z,51.11
2023-05-22T12:13:40.245Z,50.81
2023-05-22T12:16:22.881Z,50.44
2023-05-22T12:18:56.302Z,50.33
2023-05-22T12:21:27.955Z,50.89
2023-05-22T12:23:58.551Z,51.27
2023-05-22T12:26:29.170Z,52.03
2023-05-22T12:29:00.264Z,51.47
2023-05-22T12:31:35.882Z,50.61
2023-05-22T12:34:08.170Z,51.24
2023-05-22T12:36:42.192Z,50.85
2023-05-22T12:39:15.181Z,49.61
2023-05-22T12:41:46.626Z,49.90
2023-05-22T12:44:17.713Z,49.88
2023-05-22T12:46:48.472Z,49.52
2023-05-22T12:49:19.617Z,49.57
2023-05-22T12:51:50.740Z,49.32
2023-05-22T12:54:22.173Z,49.37
2023-05-22T12:56:53.099Z,49.76
2023-05-22T12:59:24.033Z,49.69
2023-05-22T13:01:57.811Z,49.01
2023-05-22T13:04:28.724Z,49.37
2023-05-22T13:06:59.676Z,49.17
2023-05-22T13:09:31.001Z,49.30
2023-05-22T13:12:01.629Z,49.28
2023-05-22T13:14:32.849Z,48.60
2023-05-22T13:17:04.153Z,48.16
2023-05-22T13:19:35.211Z,47.62
2023-05-22T13:22:07.472Z,47.13
2023-05-22T13:24:38.083Z,47.14
2023-05-22T13:27:08.806Z,47.13
2023-05-22T13:29:39.745Z,47.18
2023-05-22T13:32:10.973Z,47.51
2023-05-22T13:34:42.445Z,47.90
2023-05-22T13:37:13.730Z,48.15
2023-05-22T13:39:44.361Z,48.60
2023-05-22T13:42:15.681Z,47.40
2023-05-22T13:44:46.272Z,46.92
2023-05-22T13:47:17.389Z,47.24
2023-05-22T13:49:48.971Z,46.73
2023-05-22T13:52:19.667Z,46.62
2023-05-22T13:54:50.650Z,47.32
2023-05-22T13:57:21.243Z,47.23
2023-05-22T13:59:52.257Z,47.12
2023-05-22T14:02:23.337Z,47.02
2023-05-22T14:04:54.316Z,47.66
2023-05-22T14:07:25.252Z,48.11
2023-05-22T14:09:55.971Z,47.71
2023-05-22T14:12:27.191Z,48.09
2023-05-22T14:14:57.850Z,48.42
2023-05-22T14:17:28.687Z,48.18
2023-05-22T14:19:59.917Z,48.09
2023-05-22T14:22:32.741Z,48.18
2023-05-22T14:25:08.452Z,48.11
2023-05-22T14:27:39.575Z,48.53
2023-05-22T14:30:13.647Z,47.23
2023-05-22T14:32:44.404Z,47.73
2023-05-22T14:35:16.705Z,47.62
2023-05-22T14:37:47.512Z,48.00
2023-05-22T14:40:18.239Z,47.78
2023-05-22T14:42:50.009Z,47.67
2023-05-22T14:45:21.298Z,47.90
2023-05-22T14:47:51.933Z,47.84
2023-05-22T14:50:22.815Z,48.06
2023-05-22T14:52:53.581Z,47.37
2023-05-22T14:55:27.670Z,47.39
2023-05-22T14:57:58.580Z,46.93
2023-05-22T15:00:31.169Z,47.06
2023-05-22T15:03:02.906Z,46.62
2023-05-22T15:05:34.234Z,46.74
2023-05-22T15:08:04.905Z,46.80
2023-05-22T15:10:35.546Z,47.30
2023-05-22T15:13:06.790Z,47.77
2023-05-22T15:15:37.919Z,47.92
2023-05-22T15:18:09.349Z,47.51
2023-05-22T15:20:39.966Z,47.46
2023-05-22T15:23:10.466Z,47.64
2023-05-22T15:25:42.862Z,47.51
2023-05-22T15:28:13.916Z,47.39
2023-05-22T15:30:44.683Z,47.69
2023-05-22T15:33:15.957Z,47.78
2023-05-22T15:35:47.632Z,48.01
2023-05-22T15:38:20.078Z,48.08
2023-05-22T15:40:50.696Z,48.19
2023-05-22T15:43:22.986Z,48.53
2023-05-22T15:45:54.385Z,48.58
2023-05-22T15:48:25.476Z,48.38
2023-05-22T15:50:56.484Z,48.49
2023-05-22T15:53:27.824Z,48.18
2023-05-22T15:55:58.489Z,48.41
2023-05-22T15:58:30.280Z,48.59
2023-05-22T16:01:01.795Z,48.64
2023-05-22T16:03:33.173Z,48.85
2023-05-22T16:06:04.185Z,48.65
2023-05-22T16:08:35.169Z,48.59
2023-05-22T16:11:05.758Z,48.59
2023-05-22T16:13:36.819Z,48.89
2023-05-22T16:16:07.780Z,49.21
2023-05-22T16:18:39.388Z,49.20
2023-05-22T16:21:10.438Z,49.43
2023-05-22T16:23:41.252Z,49.31
2023-05-22T16:26:14.612Z,49.55
2023-05-22T16:28:45.247Z,49.72
2023-05-22T16:31:19.288Z,49.98
2023-05-22T16:33:49.985Z,50.00
2023-05-22T16:36:21.036Z,50.19
2023-05-22T16:38:51.598Z,50.31
2023-05-22T16:41:22.900Z,50.56
2023-05-22T16:43:56.629Z,50.88
2023-05-22T16:46:27.997Z,50.78
2023-05-22T16:48:58.977Z,50.73
2023-05-22T16:51:29.567Z,50.68
2023-05-22T16:54:00.894Z,51.06
2023-05-22T16:56:34.187Z,51.13
2023-05-22T16:59:05.633Z,51.21
2023-05-22T17:01:36.236Z,51.18
2023-05-22T17:04:08.342Z,51.46
2023-05-22T17:06:39.651Z,52.22
2023-05-22T17:09:13.193Z,52.11
2023-05-22T17:11:44.289Z,52.47
2023-05-22T17:14:14.871Z,52.58
2023-05-22T17:16:45.502Z,53.19
2023-05-22T17:19:18.753Z,54.01
2023-05-22T17:21:49.606Z,54.74
2023-05-22T17:24:20.161Z,55.13
2023-05-22T17:26:50.718Z,54.89
2023-05-22T17:29:21.436Z,55.43
2023-05-22T17:31:52.502Z,55.89
2023-05-22T17:34:24.358Z,56.26
2023-05-22T17:36:54.996Z,56.47
2023-05-22T17:39:26.242Z,56.96
2023-05-22T17:41:58.426Z,57.57
2023-05-22T17:44:32.955Z,58.42
2023-05-22T17:47:03.864Z,58.82
2023-05-22T17:49:34.462Z,59.06
2023-05-22T17:52:04.996Z,59.33
2023-05-22T17:54:37.376Z,59.78
2023-05-22T17:57:08.248Z,60.07
2023-05-22T17:59:40.660Z,60.37
2023-05-22T18:02:11.648Z,60.77
2023-05-22T18:04:42.371Z,61.01
2023-05-22T18:07:13.246Z,61.77
2023-05-22T18:09:43.783Z,62.30
2023-05-22T18:12:30.335Z,63.11
2023-05-22T18:15:02.233Z,64.34
2023-05-22T18:17:33.700Z,65.25
2023-05-22T18:20:06.348Z,65.76
2023-05-22T18:22:38.497Z,66.49
2023-05-22T18:25:11.055Z,66.95
2023-05-22T18:27:41.547Z,67.79
2023-05-22T18:30:13.794Z,68.19
2023-05-22T18:32:44.614Z,68.66
2023-05-22T18:35:15.287Z,69.14
2023-05-22T18:37:46.136Z,69.29
2023-05-22T18:40:17.486Z,69.72
2023-05-22T18:42:48.116Z,70.20
2023-05-22T18:45:18.705Z,70.74
2023-05-22T18:47:49.354Z,71.14
2023-05-22T18:50:22.121Z,71.47
2023-05-22T18:52:54.238Z,72.02
2023-05-22T18:55:25.248Z,72.16
2023-05-22T18:57:55.814Z,72.48
2023-05-22T19:00:26.432Z,73.40
2023-05-22T19:02:57.144Z,73.88
2023-05-22T19:05:28.552Z,73.48
2023-05-22T19:07:59.030Z,74.75
2023-05-22T19:10:30.202Z,75.84
2023-05-22T19:13:00.711Z,76.68
2023-05-22T19:15:31.453Z,77.47
2023-05-22T19:18:02.243Z,78.82
2023-05-22T19:20:33.519Z,92.25
2023-05-22T19:23:06.533Z,97.19
2023-05-22T19:25:37.802Z,99.83
2023-05-22T19:28:08.491Z,100.00
2023-05-22T19:30:41.894Z,100.00
2023-05-22T19:33:14.755Z,100.00
2023-05-22T19:35:47.040Z,100.00
2023-05-22T19:38:19.938Z,100.00
2023-05-22T19:40:50.553Z,100.00
2023-05-22T19:43:22.632Z,100.00
2023-05-22T19:45:54.239Z,100.00
2023-05-22T19:48:27.025Z,100.00
2023-05-22T19:50:57.870Z,100.00
2023-05-22T19:53:28.572Z,100.00
2023-05-22T19:55:59.122Z,100.00
2023-05-22T19:58:30.288Z,100.00
2023-05-22T20:01:01.316Z,100.00
2023-05-22T20:03:32.199Z,100.00
2023-05-22T20:06:02.961Z,100.00
2023-05-22T20:08:34.188Z,100.00
2023-05-22T20:11:07.054Z,100.00
2023-05-22T20:13:37.753Z,100.00
2023-05-22T20:16:11.957Z,100.00
2023-05-22T20:18:44.451Z,100.00
2023-05-22T20:21:15.268Z,100.00
2023-05-22T20:23:46.164Z,100.00
2023-05-22T20:26:16.782Z,100.00
2023-05-22T20:28:47.396Z,100.00
2023-05-22T20:31:18.232Z,100.00
2023-05-22T20:33:49.190Z,100.00
2023-05-22T20:36:20.480Z,100.00
2023-05-22T20:38:51.068Z,100.00
2023-05-22T20:41:22.816Z,100.00
2023-05-22T20:43:54.344Z,100.00
2023-05-22T20:46:25.329Z,100.00
2023-05-22T20:48:56.439Z,100.00
2023-05-22T20:51:32.799Z,100.00
2023-05-22T20:54:03.677Z,100.00
2023-05-22T20:56:34.852Z,100.00
2023-05-22T20:59:05.474Z,100.00
2023-05-22T21:01:36.537Z,100.00
2023-05-22T21:04:07.279Z,100.00
2023-05-22T21:06:38.271Z,100.00
2023-05-22T21:09:09.032Z,100.00
2023-05-22T21:11:39.519Z,100.00
2023-05-22T21:14:10.325Z,100.00
2023-05-22T21:16:41.202Z,100.00
2023-05-22T21:19:11.825Z,100.00
2023-05-22T21:21:42.767Z,100.00
2023-05-22T21:24:13.909Z,100.00
2023-05-22T21:26:44.543Z,100.00
2023-05-22T21:29:15.307Z,100.00
2023-05-22T21:31:46.194Z,100.00
2023-05-22T21:34:17.713Z,100.00
2023-05-22T21:36:48.246Z,100.00
2023-05-22T21:39:20.384Z,100.00
2023-05-22T21:41:51.626Z,100.00
2023-05-22T21:44:22.507Z,100.00
2023-05-22T21:46:53.271Z,100.00
2023-05-22T21:49:24.304Z,100.00
2023-05-22T21:51:55.910Z,100.00
2023-05-22T21:54:26.522Z,100.00
2023-05-22T21:56:57.170Z,100.00
2023-05-22T21:59:28.036Z,100.00
2023-05-22T22:02:01.571Z,100.00
2023-05-22T22:04:32.374Z,100.00
2023-05-22T22:07:06.319Z,100.00
2023-05-22T22:09:36.950Z,100.00
2023-05-22T22:12:09.089Z,100.00
2023-05-22T22:14:40.076Z,100.00
2023-05-22T22:17:11.018Z,100.00
2023-05-22T22:19:41.865Z,100.00
2023-05-22T22:22:12.982Z,100.00
2023-05-22T22:24:43.564Z,100.00
2023-05-22T22:27:14.643Z,100.00
2023-05-22T22:29:45.662Z,100.00
2023-05-22T22:32:16.938Z,100.00
2023-05-22T22:34:50.077Z,100.00
2023-05-22T22:37:21.074Z,100.00
2023-05-22T22:39:52.336Z,100.00
2023-05-22T22:42:23.038Z,100.00
2023-05-22T22:44:53.684Z,100.00
2023-05-22T22:47:25.148Z,100.00
2023-05-22T22:49:57.174Z,100.00
2023-05-22T22:52:27.830Z,100.00
2023-05-22T22:54:58.505Z,100.00
2023-05-22T22:57:29.700Z,100.00
2023-05-22T23:00:00.888Z,100.00
2023-05-22T23:02:31.694Z,100.00
2023-05-22T23:05:02.761Z,100.00
2023-05-22T23:07:34.480Z,100.00
2023-05-22T23:10:06.534Z,100.00
2023-05-22T23:12:37.413Z,100.00
2023-05-22T23:15:11.125Z,100.00
2023-05-22T23:17:43.096Z,100.00
2023-05-22T23:20:14.299Z,100.00
2023-05-22T23:22:45.066Z,100.00
2023-05-22T23:25:15.681Z,100.00
2023-05-22T23:27:46.343Z,100.00
2023-05-22T23:30:17.372Z,100.00
2023-05-22T23:32:47.981Z,100.00
2023-05-22T23:35:18.957Z,100.00
2023-05-22T23:37:52.684Z,100.00
2023-05-22T23:40:23.735Z,100.00
2023-05-22T23:42:56.199Z,100.00
2023-05-22T23:45:27.420Z,100.00
2023-05-22T23:47:58.004Z,100.00
2023-05-22T23:50:28.626Z,100.00
2023-05-22T23:52:59.636Z,100.00
2023-05-22T23:55:30.441Z,100.00
2023-05-22T23:58:04.458Z,100.00
